sensor_id;sensor_type;location;lat;lon;timestamp;P1;durP1;ratioP1;P2;durP2;ratioP2
60354;SDS011;46198;51.464;-0.066;2023-12-29T00:01:43;15.33;;;2.80;;
60354;SDS011;46198;51.464;-0.066;2023-12-29T00:04:12;17.80;;;2.90;;
60354;SDS011;46198;51.464;-0.066;2023-12-29T00:06:40;15.27;;;3.23;;
60354;SDS011;46198;51.464;-0.066;2023-12-29T00:09:12;15.75;;;2.85;;
60354;SDS011;46198;51.464;-0.066;2023-12-29T00:11:43;14.87;;;3.43;;
60354;SDS011;46198;51.464;-0.066;2023-12-29T00:14:12;14.63;;;4.33;;
60354;SDS011;46198;51.464;-0.066;2023-12-29T00:16:40;22.07;;;4.20;;
60354;SDS011;46198;51.464;-0.066;2023-12-29T00:19:09;16.83;;;2.77;;
60354;SDS011;46198;51.464;-0.066;2023-12-29T00:21:38;12.60;;;2.43;;
60354;SDS011;46198;51.464;-0.066;2023-12-29T00:24:07;13.93;;;2.20;;
60354;SDS011;46198;51.464;-0.066;2023-12-29T00:26:35;10.57;;;2.20;;
60354;SDS011;46198;51.464;-0.066;2023-12-29T00:29:09;13.40;;;2.87;;
60354;SDS011;46198;51.464;-0.066;2023-12-29T00:31:38;15.07;;;2.87;;
60354;SDS011;46198;51.464;-0.066;2023-12-29T00:34:06;12.10;;;2.97;;
60354;SDS011;46198;51.464;-0.066;2023-12-29T00:36:35;21.93;;;3.20;;
60354;SDS011;46198;51.464;-0.066;2023-12-29T00:39:04;13.23;;;2.50;;
60354;SDS011;46198;51.464;-0.066;2023-12-29T00:41:33;15.17;;;2.63;;
60354;SDS011;46198;51.464;-0.066;2023-12-29T00:44:01;13.67;;;3.47;;
60354;SDS011;46198;51.464;-0.066;2023-12-29T00:46:31;16.93;;;3.47;;
60354;SDS011;46198;51.464;-0.066;2023-12-29T00:49:00;15.23;;;2.70;;
60354;SDS011;46198;51.464;-0.066;2023-12-29T00:51:28;21.60;;;2.70;;
60354;SDS011;46198;51.464;-0.066;2023-12-29T00:53:56;18.67;;;3.07;;
60354;SDS011;46198;51.464;-0.066;2023-12-29T00:56:25;11.43;;;2.13;;
60354;SDS011;46198;51.464;-0.066;2023-12-29T00:58:53;9.27;;;1.70;;
60354;SDS011;46198;51.464;-0.066;2023-12-29T01:01:21;14.33;;;3.07;;
60354;SDS011;46198;51.464;-0.066;2023-12-29T01:03:51;12.37;;;3.13;;
60354;SDS011;46198;51.464;-0.066;2023-12-29T01:06:22;17.77;;;3.03;;
60354;SDS011;46198;51.464;-0.066;2023-12-29T01:08:51;15.63;;;3.00;;
60354;SDS011;46198;51.464;-0.066;2023-12-29T01:11:19;11.60;;;2.67;;
60354;SDS011;46198;51.464;-0.066;2023-12-29T01:13:47;12.63;;;2.60;;
60354;SDS011;46198;51.464;-0.066;2023-12-29T01:16:16;13.13;;;2.63;;
60354;SDS011;46198;51.464;-0.066;2023-12-29T01:18:44;13.43;;;2.73;;
60354;SDS011;46198;51.464;-0.066;2023-12-29T01:21:14;12.87;;;2.07;;
60354;SDS011;46198;51.464;-0.066;2023-12-29T01:23:43;18.43;;;2.50;;
60354;SDS011;46198;51.464;-0.066;2023-12-29T01:26:11;17.10;;;2.53;;
60354;SDS011;46198;51.464;-0.066;2023-12-29T01:28:40;16.83;;;2.90;;
60354;SDS011;46198;51.464;-0.066;2023-12-29T01:31:08;13.60;;;2.27;;
60354;SDS011;46198;51.464;-0.066;2023-12-29T01:33:38;15.13;;;2.37;;
60354;SDS011;46198;51.464;-0.066;2023-12-29T01:36:06;18.13;;;3.07;;
60354;SDS011;46198;51.464;-0.066;2023-12-29T01:38:45;18.30;;;3.00;;
60354;SDS011;46198;51.464;-0.066;2023-12-29T01:41:13;16.80;;;2.47;;
60354;SDS011;46198;51.464;-0.066;2023-12-29T01:46:45;25.17;;;3.83;;
60354;SDS011;46198;51.464;-0.066;2023-12-29T01:49:14;13.07;;;2.93;;
60354;SDS011;46198;51.464;-0.066;2023-12-29T01:51:44;15.35;;;2.50;;
60354;SDS011;46198;51.464;-0.066;2023-12-29T01:54:16;19.48;;;2.85;;
60354;SDS011;46198;51.464;-0.066;2023-12-29T01:56:46;15.93;;;2.30;;
60354;SDS011;46198;51.464;-0.066;2023-12-29T01:59:17;14.10;;;2.60;;
60354;SDS011;46198;51.464;-0.066;2023-12-29T02:01:53;15.90;;;3.40;;
60354;SDS011;46198;51.464;-0.066;2023-12-29T02:04:23;16.58;;;3.63;;
60354;SDS011;46198;51.464;-0.066;2023-12-29T02:06:52;15.33;;;2.13;;
60354;SDS011;46198;51.464;-0.066;2023-12-29T02:09:23;24.07;;;2.97;;
60354;SDS011;46198;51.464;-0.066;2023-12-29T02:11:51;17.10;;;2.83;;
60354;SDS011;46198;51.464;-0.066;2023-12-29T02:14:19;9.93;;;1.90;;
60354;SDS011;46198;51.464;-0.066;2023-12-29T02:16:52;21.27;;;3.07;;
60354;SDS011;46198;51.464;-0.066;2023-12-29T02:19:36;12.87;;;2.23;;
60354;SDS011;46198;51.464;-0.066;2023-12-29T02:22:07;10.63;;;2.47;;
60354;SDS011;46198;51.464;-0.066;2023-12-29T02:24:38;18.30;;;3.83;;
60354;SDS011;46198;51.464;-0.066;2023-12-29T02:27:14;22.23;;;3.20;;
60354;SDS011;46198;51.464;-0.066;2023-12-29T02:29:51;16.90;;;2.50;;
60354;SDS011;46198;51.464;-0.066;2023-12-29T02:32:31;16.27;;;2.63;;
60354;SDS011;46198;51.464;-0.066;2023-12-29T02:35:04;14.87;;;2.87;;
60354;SDS011;46198;51.464;-0.066;2023-12-29T02:37:34;13.60;;;2.35;;
60354;SDS011;46198;51.464;-0.066;2023-12-29T02:40:05;20.80;;;3.90;;
60354;SDS011;46198;51.464;-0.066;2023-12-29T02:42:39;13.57;;;3.60;;
60354;SDS011;46198;51.464;-0.066;2023-12-29T02:45:13;21.47;;;2.70;;
60354;SDS011;46198;51.464;-0.066;2023-12-29T02:47:41;18.60;;;3.47;;
60354;SDS011;46198;51.464;-0.066;2023-12-29T02:50:10;16.03;;;2.53;;
60354;SDS011;46198;51.464;-0.066;2023-12-29T02:52:39;14.13;;;2.27;;
60354;SDS011;46198;51.464;-0.066;2023-12-29T02:55:07;26.83;;;4.40;;
60354;SDS011;46198;51.464;-0.066;2023-12-29T02:57:36;14.47;;;3.17;;
60354;SDS011;46198;51.464;-0.066;2023-12-29T03:00:07;12.93;;;3.08;;
60354;SDS011;46198;51.464;-0.066;2023-12-29T03:02:35;15.83;;;3.27;;
60354;SDS011;46198;51.464;-0.066;2023-12-29T03:05:04;19.07;;;3.73;;
60354;SDS011;46198;51.464;-0.066;2023-12-29T03:07:33;15.87;;;2.93;;
60354;SDS011;46198;51.464;-0.066;2023-12-29T03:10:05;19.50;;;3.30;;
60354;SDS011;46198;51.464;-0.066;2023-12-29T03:12:34;14.67;;;2.50;;
60354;SDS011;46198;51.464;-0.066;2023-12-29T03:15:04;19.30;;;3.80;;
60354;SDS011;46198;51.464;-0.066;2023-12-29T03:17:33;16.20;;;2.15;;
60354;SDS011;46198;51.464;-0.066;2023-12-29T03:20:01;20.87;;;3.77;;
60354;SDS011;46198;51.464;-0.066;2023-12-29T03:22:31;14.90;;;4.00;;
60354;SDS011;46198;51.464;-0.066;2023-12-29T03:24:59;22.17;;;3.13;;
60354;SDS011;46198;51.464;-0.066;2023-12-29T03:27:28;14.87;;;2.30;;
60354;SDS011;46198;51.464;-0.066;2023-12-29T03:30:00;10.87;;;2.50;;
60354;SDS011;46198;51.464;-0.066;2023-12-29T03:32:33;12.13;;;2.40;;
60354;SDS011;46198;51.464;-0.066;2023-12-29T03:35:01;13.77;;;3.30;;
60354;SDS011;46198;51.464;-0.066;2023-12-29T03:37:30;11.20;;;2.57;;
60354;SDS011;46198;51.464;-0.066;2023-12-29T03:39:58;19.50;;;2.83;;
60354;SDS011;46198;51.464;-0.066;2023-12-29T03:42:26;21.77;;;3.90;;
60354;SDS011;46198;51.464;-0.066;2023-12-29T03:44:54;12.20;;;2.43;;
60354;SDS011;46198;51.464;-0.066;2023-12-29T03:47:24;15.40;;;3.13;;
60354;SDS011;46198;51.464;-0.066;2023-12-29T03:49:54;16.47;;;2.73;;
60354;SDS011;46198;51.464;-0.066;2023-12-29T03:52:22;17.43;;;2.77;;
60354;SDS011;46198;51.464;-0.066;2023-12-29T03:54:51;14.57;;;2.50;;
60354;SDS011;46198;51.464;-0.066;2023-12-29T03:57:19;14.00;;;3.17;;
60354;SDS011;46198;51.464;-0.066;2023-12-29T03:59:48;14.37;;;2.50;;
60354;SDS011;46198;51.464;-0.066;2023-12-29T04:02:16;15.90;;;2.73;;
60354;SDS011;46198;51.464;-0.066;2023-12-29T04:04:44;19.80;;;2.60;;
60354;SDS011;46198;51.464;-0.066;2023-12-29T04:07:14;15.47;;;3.00;;
60354;SDS011;46198;51.464;-0.066;2023-12-29T04:09:43;19.23;;;3.40;;
60354;SDS011;46198;51.464;-0.066;2023-12-29T04:12:11;18.90;;;2.13;;
60354;SDS011;46198;51.464;-0.066;2023-12-29T04:14:39;14.13;;;2.10;;
60354;SDS011;46198;51.464;-0.066;2023-12-29T04:17:08;12.30;;;2.60;;
60354;SDS011;46198;51.464;-0.066;2023-12-29T04:19:41;10.20;;;3.43;;
60354;SDS011;46198;51.464;-0.066;2023-12-29T04:22:09;13.90;;;2.40;;
60354;SDS011;46198;51.464;-0.066;2023-12-29T04:24:39;14.00;;;3.10;;
60354;SDS011;46198;51.464;-0.066;2023-12-29T04:27:08;17.03;;;2.47;;
60354;SDS011;46198;51.464;-0.066;2023-12-29T04:29:37;17.03;;;3.20;;
60354;SDS011;46198;51.464;-0.066;2023-12-29T04:32:05;14.60;;;2.75;;
60354;SDS011;46198;51.464;-0.066;2023-12-29T04:34:36;21.15;;;3.13;;
60354;SDS011;46198;51.464;-0.066;2023-12-29T04:37:05;17.67;;;2.78;;
60354;SDS011;46198;51.464;-0.066;2023-12-29T04:39:33;16.23;;;2.80;;
60354;SDS011;46198;51.464;-0.066;2023-12-29T04:42:03;12.83;;;2.93;;
60354;SDS011;46198;51.464;-0.066;2023-12-29T04:44:34;6.83;;;2.00;;
60354;SDS011;46198;51.464;-0.066;2023-12-29T04:47:02;14.85;;;2.20;;
60354;SDS011;46198;51.464;-0.066;2023-12-29T04:49:31;15.20;;;2.17;;
60354;SDS011;46198;51.464;-0.066;2023-12-29T04:51:59;11.88;;;1.88;;
60354;SDS011;46198;51.464;-0.066;2023-12-29T04:54:27;13.55;;;2.25;;
60354;SDS011;46198;51.464;-0.066;2023-12-29T04:56:55;18.83;;;3.83;;
60354;SDS011;46198;51.464;-0.066;2023-12-29T04:59:25;12.13;;;2.67;;
60354;SDS011;46198;51.464;-0.066;2023-12-29T05:01:53;14.40;;;3.27;;
60354;SDS011;46198;51.464;-0.066;2023-12-29T05:04:22;16.37;;;2.90;;
60354;SDS011;46198;51.464;-0.066;2023-12-29T05:06:50;10.07;;;1.90;;
60354;SDS011;46198;51.464;-0.066;2023-12-29T05:09:18;16.47;;;2.30;;
60354;SDS011;46198;51.464;-0.066;2023-12-29T05:11:47;13.13;;;2.35;;
60354;SDS011;46198;51.464;-0.066;2023-12-29T05:14:15;10.00;;;2.33;;
60354;SDS011;46198;51.464;-0.066;2023-12-29T05:16:45;17.57;;;3.80;;
60354;SDS011;46198;51.464;-0.066;2023-12-29T05:19:13;12.27;;;2.80;;
60354;SDS011;46198;51.464;-0.066;2023-12-29T05:21:42;10.18;;;1.80;;
60354;SDS011;46198;51.464;-0.066;2023-12-29T05:24:10;18.47;;;2.60;;
60354;SDS011;46198;51.464;-0.066;2023-12-29T05:26:39;12.85;;;2.30;;
60354;SDS011;46198;51.464;-0.066;2023-12-29T05:29:07;14.57;;;2.10;;
60354;SDS011;46198;51.464;-0.066;2023-12-29T05:31:35;15.57;;;2.03;;
60354;SDS011;46198;51.464;-0.066;2023-12-29T05:34:05;11.70;;;2.73;;
60354;SDS011;46198;51.464;-0.066;2023-12-29T05:36:35;15.15;;;2.75;;
60354;SDS011;46198;51.464;-0.066;2023-12-29T05:39:03;14.00;;;2.10;;
60354;SDS011;46198;51.464;-0.066;2023-12-29T05:41:32;12.43;;;1.80;;
60354;SDS011;46198;51.464;-0.066;2023-12-29T05:44:00;7.37;;;1.60;;
60354;SDS011;46198;51.464;-0.066;2023-12-29T05:46:28;16.07;;;2.13;;
60354;SDS011;46198;51.464;-0.066;2023-12-29T05:48:56;13.97;;;2.93;;
60354;SDS011;46198;51.464;-0.066;2023-12-29T05:51:26;14.67;;;3.00;;
60354;SDS011;46198;51.464;-0.066;2023-12-29T05:53:54;15.52;;;2.30;;
60354;SDS011;46198;51.464;-0.066;2023-12-29T05:56:22;15.20;;;2.10;;
60354;SDS011;46198;51.464;-0.066;2023-12-29T05:58:52;14.07;;;1.77;;
60354;SDS011;46198;51.464;-0.066;2023-12-29T06:01:20;15.75;;;3.63;;
60354;SDS011;46198;51.464;-0.066;2023-12-29T06:03:48;6.88;;;1.50;;
60354;SDS011;46198;51.464;-0.066;2023-12-29T06:06:16;9.02;;;2.20;;
60354;SDS011;46198;51.464;-0.066;2023-12-29T06:08:46;13.23;;;1.83;;
60354;SDS011;46198;51.464;-0.066;2023-12-29T06:11:14;13.60;;;1.60;;
60354;SDS011;46198;51.464;-0.066;2023-12-29T06:13:43;15.47;;;2.57;;
60354;SDS011;46198;51.464;-0.066;2023-12-29T06:16:16;10.65;;;1.73;;
60354;SDS011;46198;51.464;-0.066;2023-12-29T06:18:46;10.20;;;1.87;;
60354;SDS011;46198;51.464;-0.066;2023-12-29T06:21:14;13.67;;;1.70;;
60354;SDS011;46198;51.464;-0.066;2023-12-29T06:23:43;10.77;;;1.97;;
60354;SDS011;46198;51.464;-0.066;2023-12-29T06:26:17;6.67;;;1.50;;
60354;SDS011;46198;51.464;-0.066;2023-12-29T06:28:46;12.60;;;1.92;;
60354;SDS011;46198;51.464;-0.066;2023-12-29T06:31:16;7.70;;;1.43;;
60354;SDS011;46198;51.464;-0.066;2023-12-29T06:33:45;11.02;;;2.78;;
60354;SDS011;46198;51.464;-0.066;2023-12-29T06:36:14;10.67;;;1.50;;
60354;SDS011;46198;51.464;-0.066;2023-12-29T06:38:43;3.43;;;1.03;;
60354;SDS011;46198;51.464;-0.066;2023-12-29T06:41:17;9.18;;;1.77;;
60354;SDS011;46198;51.464;-0.066;2023-12-29T06:43:45;7.90;;;1.10;;
60354;SDS011;46198;51.464;-0.066;2023-12-29T06:46:13;5.47;;;1.30;;
60354;SDS011;46198;51.464;-0.066;2023-12-29T06:48:42;6.63;;;1.70;;
60354;SDS011;46198;51.464;-0.066;2023-12-29T06:51:15;14.52;;;2.40;;
60354;SDS011;46198;51.464;-0.066;2023-12-29T06:53:45;5.40;;;1.00;;
60354;SDS011;46198;51.464;-0.066;2023-12-29T06:56:14;10.67;;;1.23;;
60354;SDS011;46198;51.464;-0.066;2023-12-29T06:58:43;3.73;;;0.90;;
60354;SDS011;46198;51.464;-0.066;2023-12-29T07:01:12;9.93;;;2.97;;
60354;SDS011;46198;51.464;-0.066;2023-12-29T07:03:40;8.43;;;1.25;;
60354;SDS011;46198;51.464;-0.066;2023-12-29T07:06:09;7.17;;;1.43;;
60354;SDS011;46198;51.464;-0.066;2023-12-29T07:08:37;4.37;;;1.20;;
60354;SDS011;46198;51.464;-0.066;2023-12-29T07:11:09;7.40;;;1.33;;
60354;SDS011;46198;51.464;-0.066;2023-12-29T07:13:38;5.50;;;1.20;;
60354;SDS011;46198;51.464;-0.066;2023-12-29T07:16:07;9.20;;;1.60;;
60354;SDS011;46198;51.464;-0.066;2023-12-29T07:18:36;9.30;;;1.37;;
60354;SDS011;46198;51.464;-0.066;2023-12-29T07:21:04;10.50;;;2.00;;
60354;SDS011;46198;51.464;-0.066;2023-12-29T07:23:32;8.27;;;1.40;;
60354;SDS011;46198;51.464;-0.066;2023-12-29T07:26:01;5.85;;;1.20;;
60354;SDS011;46198;51.464;-0.066;2023-12-29T07:28:29;7.90;;;1.70;;
60354;SDS011;46198;51.464;-0.066;2023-12-29T07:30:57;6.43;;;1.20;;
60354;SDS011;46198;51.464;-0.066;2023-12-29T07:33:28;6.30;;;1.37;;
60354;SDS011;46198;51.464;-0.066;2023-12-29T07:35:56;12.00;;;1.57;;
60354;SDS011;46198;51.464;-0.066;2023-12-29T07:38:25;7.87;;;1.13;;
60354;SDS011;46198;51.464;-0.066;2023-12-29T07:40:54;6.07;;;1.15;;
60354;SDS011;46198;51.464;-0.066;2023-12-29T07:46:23;7.55;;;1.20;;
60354;SDS011;46198;51.464;-0.066;2023-12-29T07:48:53;8.93;;;1.63;;
60354;SDS011;46198;51.464;-0.066;2023-12-29T07:51:24;5.15;;;1.50;;
60354;SDS011;46198;51.464;-0.066;2023-12-29T07:53:52;11.30;;;2.08;;
60354;SDS011;46198;51.464;-0.066;2023-12-29T07:56:20;6.17;;;1.63;;
60354;SDS011;46198;51.464;-0.066;2023-12-29T07:58:49;4.60;;;1.08;;
60354;SDS011;46198;51.464;-0.066;2023-12-29T08:01:17;6.65;;;2.72;;
60354;SDS011;46198;51.464;-0.066;2023-12-29T08:03:45;3.07;;;0.70;;
60354;SDS011;46198;51.464;-0.066;2023-12-29T08:06:15;8.38;;;1.42;;
60354;SDS011;46198;51.464;-0.066;2023-12-29T08:08:43;6.05;;;1.67;;
60354;SDS011;46198;51.464;-0.066;2023-12-29T08:11:14;6.80;;;1.83;;
60354;SDS011;46198;51.464;-0.066;2023-12-29T08:13:44;7.63;;;1.75;;
60354;SDS011;46198;51.464;-0.066;2023-12-29T08:16:16;11.67;;;3.30;;
60354;SDS011;46198;51.464;-0.066;2023-12-29T08:18:45;5.85;;;1.63;;
60354;SDS011;46198;51.464;-0.066;2023-12-29T08:21:19;7.57;;;2.23;;
60354;SDS011;46198;51.464;-0.066;2023-12-29T08:23:48;6.93;;;1.23;;
60354;SDS011;46198;51.464;-0.066;2023-12-29T08:26:17;7.97;;;0.93;;
60354;SDS011;46198;51.464;-0.066;2023-12-29T08:28:45;3.60;;;1.77;;
60354;SDS011;46198;51.464;-0.066;2023-12-29T08:31:14;6.73;;;1.20;;
60354;SDS011;46198;51.464;-0.066;2023-12-29T08:33:43;2.10;;;0.83;;
60354;SDS011;46198;51.464;-0.066;2023-12-29T08:36:11;7.40;;;1.20;;
60354;SDS011;46198;51.464;-0.066;2023-12-29T08:38:41;6.50;;;1.37;;
60354;SDS011;46198;51.464;-0.066;2023-12-29T08:41:13;3.28;;;0.88;;
60354;SDS011;46198;51.464;-0.066;2023-12-29T08:43:41;5.40;;;0.73;;
60354;SDS011;46198;51.464;-0.066;2023-12-29T08:46:10;4.68;;;0.98;;
60354;SDS011;46198;51.464;-0.066;2023-12-29T08:48:38;7.93;;;1.13;;
60354;SDS011;46198;51.464;-0.066;2023-12-29T08:51:06;9.68;;;1.45;;
60354;SDS011;46198;51.464;-0.066;2023-12-29T08:53:35;5.73;;;1.23;;
60354;SDS011;46198;51.464;-0.066;2023-12-29T08:56:06;3.40;;;0.80;;
60354;SDS011;46198;51.464;-0.066;2023-12-29T08:58:35;4.90;;;1.10;;
60354;SDS011;46198;51.464;-0.066;2023-12-29T09:01:04;5.10;;;0.90;;
60354;SDS011;46198;51.464;-0.066;2023-12-29T09:03:37;8.13;;;1.37;;
60354;SDS011;46198;51.464;-0.066;2023-12-29T09:06:06;5.53;;;1.13;;
60354;SDS011;46198;51.464;-0.066;2023-12-29T09:08:36;5.80;;;1.40;;
60354;SDS011;46198;51.464;-0.066;2023-12-29T09:11:06;6.17;;;1.00;;
60354;SDS011;46198;51.464;-0.066;2023-12-29T09:13:35;7.53;;;1.83;;
60354;SDS011;46198;51.464;-0.066;2023-12-29T09:16:04;7.13;;;1.00;;
60354;SDS011;46198;51.464;-0.066;2023-12-29T09:18:33;4.23;;;1.13;;
60354;SDS011;46198;51.464;-0.066;2023-12-29T09:21:02;4.87;;;1.20;;
60354;SDS011;46198;51.464;-0.066;2023-12-29T09:23:31;5.03;;;0.90;;
60354;SDS011;46198;51.464;-0.066;2023-12-29T09:25:59;5.77;;;1.30;;
60354;SDS011;46198;51.464;-0.066;2023-12-29T09:28:30;5.80;;;1.00;;
60354;SDS011;46198;51.464;-0.066;2023-12-29T09:31:01;4.43;;;1.10;;
60354;SDS011;46198;51.464;-0.066;2023-12-29T09:33:29;8.67;;;1.87;;
60354;SDS011;46198;51.464;-0.066;2023-12-29T09:35:57;7.53;;;1.20;;
60354;SDS011;46198;51.464;-0.066;2023-12-29T09:38:26;4.47;;;1.43;;
60354;SDS011;46198;51.464;-0.066;2023-12-29T09:43:54;5.68;;;1.20;;
60354;SDS011;46198;51.464;-0.066;2023-12-29T09:46:25;4.65;;;1.10;;
60354;SDS011;46198;51.464;-0.066;2023-12-29T09:49:01;8.65;;;1.50;;
60354;SDS011;46198;51.464;-0.066;2023-12-29T09:51:32;8.03;;;1.13;;
60354;SDS011;46198;51.464;-0.066;2023-12-29T09:54:01;6.10;;;1.83;;
60354;SDS011;46198;51.464;-0.066;2023-12-29T09:56:31;7.80;;;2.00;;
60354;SDS011;46198;51.464;-0.066;2023-12-29T09:59:02;6.50;;;1.40;;
60354;SDS011;46198;51.464;-0.066;2023-12-29T10:01:36;11.38;;;2.05;;
60354;SDS011;46198;51.464;-0.066;2023-12-29T10:04:07;7.90;;;1.40;;
60354;SDS011;46198;51.464;-0.066;2023-12-29T10:06:38;4.88;;;1.10;;
60354;SDS011;46198;51.464;-0.066;2023-12-29T10:09:16;5.28;;;1.02;;
60354;SDS011;46198;51.464;-0.066;2023-12-29T10:11:46;4.85;;;1.23;;
60354;SDS011;46198;51.464;-0.066;2023-12-29T10:14:22;20.52;;;2.10;;
60354;SDS011;46198;51.464;-0.066;2023-12-29T10:16:53;12.90;;;1.67;;
60354;SDS011;46198;51.464;-0.066;2023-12-29T10:19:30;6.88;;;1.10;;
60354;SDS011;46198;51.464;-0.066;2023-12-29T10:22:06;7.95;;;1.30;;
60354;SDS011;46198;51.464;-0.066;2023-12-29T10:24:39;7.05;;;1.40;;
60354;SDS011;46198;51.464;-0.066;2023-12-29T10:27:09;3.90;;;1.13;;
60354;SDS011;46198;51.464;-0.066;2023-12-29T10:29:39;7.18;;;1.48;;
60354;SDS011;46198;51.464;-0.066;2023-12-29T10:32:07;10.45;;;1.48;;
60354;SDS011;46198;51.464;-0.066;2023-12-29T10:34:36;10.10;;;1.60;;
60354;SDS011;46198;51.464;-0.066;2023-12-29T10:37:04;3.45;;;1.10;;
60354;SDS011;46198;51.464;-0.066;2023-12-29T10:39:36;6.83;;;1.53;;
60354;SDS011;46198;51.464;-0.066;2023-12-29T10:42:04;6.53;;;1.60;;
60354;SDS011;46198;51.464;-0.066;2023-12-29T10:44:34;4.40;;;1.63;;
60354;SDS011;46198;51.464;-0.066;2023-12-29T10:47:11;6.60;;;1.90;;
60354;SDS011;46198;51.464;-0.066;2023-12-29T10:49:40;5.78;;;1.48;;
60354;SDS011;46198;51.464;-0.066;2023-12-29T10:52:12;7.18;;;1.70;;
60354;SDS011;46198;51.464;-0.066;2023-12-29T10:54:42;7.05;;;2.10;;
60354;SDS011;46198;51.464;-0.066;2023-12-29T10:57:11;10.02;;;1.85;;
60354;SDS011;46198;51.464;-0.066;2023-12-29T10:59:40;13.02;;;1.60;;
60354;SDS011;46198;51.464;-0.066;2023-12-29T11:02:12;6.28;;;1.10;;
60354;SDS011;46198;51.464;-0.066;2023-12-29T11:04:42;10.77;;;1.70;;
60354;SDS011;46198;51.464;-0.066;2023-12-29T11:07:11;8.18;;;1.95;;
60354;SDS011;46198;51.464;-0.066;2023-12-29T11:09:40;7.45;;;2.10;;
60354;SDS011;46198;51.464;-0.066;2023-12-29T11:12:09;9.50;;;2.20;;
60354;SDS011;46198;51.464;-0.066;2023-12-29T11:14:41;9.65;;;1.92;;
60354;SDS011;46198;51.464;-0.066;2023-12-29T11:17:14;12.55;;;3.75;;
60354;SDS011;46198;51.464;-0.066;2023-12-29T11:19:44;9.00;;;1.90;;
60354;SDS011;46198;51.464;-0.066;2023-12-29T11:22:15;12.35;;;2.70;;
60354;SDS011;46198;51.464;-0.066;2023-12-29T11:24:46;10.40;;;2.10;;
60354;SDS011;46198;51.464;-0.066;2023-12-29T11:27:14;9.73;;;1.58;;
60354;SDS011;46198;51.464;-0.066;2023-12-29T11:29:44;7.25;;;1.55;;
60354;SDS011;46198;51.464;-0.066;2023-12-29T11:32:16;9.30;;;2.13;;
60354;SDS011;46198;51.464;-0.066;2023-12-29T11:34:49;8.70;;;1.90;;
60354;SDS011;46198;51.464;-0.066;2023-12-29T11:37:32;9.65;;;2.15;;
60354;SDS011;46198;51.464;-0.066;2023-12-29T11:40:17;12.45;;;1.77;;
60354;SDS011;46198;51.464;-0.066;2023-12-29T11:42:49;5.63;;;1.30;;
60354;SDS011;46198;51.464;-0.066;2023-12-29T11:45:23;7.00;;;1.67;;
60354;SDS011;46198;51.464;-0.066;2023-12-29T11:47:54;10.27;;;1.70;;
60354;SDS011;46198;51.464;-0.066;2023-12-29T11:53:00;3.70;;;1.48;;
60354;SDS011;46198;51.464;-0.066;2023-12-29T11:55:29;6.38;;;1.77;;
60354;SDS011;46198;51.464;-0.066;2023-12-29T11:57:59;5.28;;;1.83;;
60354;SDS011;46198;51.464;-0.066;2023-12-29T12:00:46;5.13;;;1.30;;
60354;SDS011;46198;51.464;-0.066;2023-12-29T12:03:17;4.88;;;1.92;;
60354;SDS011;46198;51.464;-0.066;2023-12-29T12:05:48;7.72;;;2.30;;
60354;SDS011;46198;51.464;-0.066;2023-12-29T12:08:27;3.33;;;0.93;;
60354;SDS011;46198;51.464;-0.066;2023-12-29T12:10:56;6.20;;;1.45;;
60354;SDS011;46198;51.464;-0.066;2023-12-29T12:19:17;24.25;;;8.30;;
60354;SDS011;46198;51.464;-0.066;2023-12-29T12:21:47;14.38;;;4.50;;
60354;SDS011;46198;51.464;-0.066;2023-12-29T12:24:18;7.53;;;1.75;;
60354;SDS011;46198;51.464;-0.066;2023-12-29T12:26:47;3.65;;;2.00;;
60354;SDS011;46198;51.464;-0.066;2023-12-29T12:29:16;3.38;;;1.10;;
60354;SDS011;46198;51.464;-0.066;2023-12-29T12:31:52;3.47;;;0.93;;
60354;SDS011;46198;51.464;-0.066;2023-12-29T12:34:23;4.82;;;1.40;;
60354;SDS011;46198;51.464;-0.066;2023-12-29T12:36:52;3.45;;;1.08;;
60354;SDS011;46198;51.464;-0.066;2023-12-29T12:39:23;5.72;;;1.25;;
60354;SDS011;46198;51.464;-0.066;2023-12-29T12:41:52;4.25;;;1.20;;
60354;SDS011;46198;51.464;-0.066;2023-12-29T12:44:20;5.63;;;1.20;;
60354;SDS011;46198;51.464;-0.066;2023-12-29T12:46:56;2.03;;;0.77;;
60354;SDS011;46198;51.464;-0.066;2023-12-29T12:49:30;5.00;;;1.40;;
60354;SDS011;46198;51.464;-0.066;2023-12-29T12:51:58;7.50;;;1.13;;
60354;SDS011;46198;51.464;-0.066;2023-12-29T12:54:27;4.53;;;0.90;;
60354;SDS011;46198;51.464;-0.066;2023-12-29T12:56:55;6.25;;;1.10;;
60354;SDS011;46198;51.464;-0.066;2023-12-29T12:59:27;4.72;;;0.80;;
60354;SDS011;46198;51.464;-0.066;2023-12-29T13:01:56;2.55;;;0.80;;
60354;SDS011;46198;51.464;-0.066;2023-12-29T13:04:25;3.08;;;0.60;;
60354;SDS011;46198;51.464;-0.066;2023-12-29T13:06:55;3.47;;;1.05;;
60354;SDS011;46198;51.464;-0.066;2023-12-29T13:09:24;1.52;;;0.75;;
60354;SDS011;46198;51.464;-0.066;2023-12-29T13:12:06;2.60;;;1.02;;
60354;SDS011;46198;51.464;-0.066;2023-12-29T13:14:35;2.05;;;1.00;;
60354;SDS011;46198;51.464;-0.066;2023-12-29T13:17:07;2.72;;;0.93;;
60354;SDS011;46198;51.464;-0.066;2023-12-29T13:19:37;2.05;;;0.88;;
60354;SDS011;46198;51.464;-0.066;2023-12-29T13:22:09;2.40;;;0.90;;
60354;SDS011;46198;51.464;-0.066;2023-12-29T13:24:44;3.70;;;1.25;;
60354;SDS011;46198;51.464;-0.066;2023-12-29T13:27:13;1.95;;;1.10;;
60354;SDS011;46198;51.464;-0.066;2023-12-29T13:29:42;2.58;;;0.95;;
60354;SDS011;46198;51.464;-0.066;2023-12-29T13:32:13;2.00;;;1.08;;
60354;SDS011;46198;51.464;-0.066;2023-12-29T13:34:48;3.25;;;1.20;;
60354;SDS011;46198;51.464;-0.066;2023-12-29T13:37:26;2.15;;;0.90;;
60354;SDS011;46198;51.464;-0.066;2023-12-29T13:40:00;2.95;;;1.50;;
60354;SDS011;46198;51.464;-0.066;2023-12-29T13:42:38;1.42;;;0.93;;
60354;SDS011;46198;51.464;-0.066;2023-12-29T13:45:09;1.50;;;0.95;;
60354;SDS011;46198;51.464;-0.066;2023-12-29T13:50:09;2.28;;;1.00;;
60354;SDS011;46198;51.464;-0.066;2023-12-29T13:52:39;2.08;;;0.90;;
60354;SDS011;46198;51.464;-0.066;2023-12-29T13:55:08;1.75;;;0.93;;
60354;SDS011;46198;51.464;-0.066;2023-12-29T13:57:37;1.20;;;0.80;;
60354;SDS011;46198;51.464;-0.066;2023-12-29T14:00:15;2.13;;;1.15;;
60354;SDS011;46198;51.464;-0.066;2023-12-29T14:02:45;2.88;;;1.30;;
60354;SDS011;46198;51.464;-0.066;2023-12-29T14:05:18;5.18;;;2.70;;
60354;SDS011;46198;51.464;-0.066;2023-12-29T14:07:54;1.70;;;0.80;;
60354;SDS011;46198;51.464;-0.066;2023-12-29T14:10:31;7.50;;;1.52;;
60354;SDS011;46198;51.464;-0.066;2023-12-29T14:13:04;3.50;;;0.90;;
60354;SDS011;46198;51.464;-0.066;2023-12-29T14:15:35;0.60;;;0.60;;
60354;SDS011;46198;51.464;-0.066;2023-12-29T14:18:05;3.38;;;1.25;;
60354;SDS011;46198;51.464;-0.066;2023-12-29T14:20:50;4.78;;;2.47;;
60354;SDS011;46198;51.464;-0.066;2023-12-29T14:23:20;5.05;;;2.53;;
60354;SDS011;46198;51.464;-0.066;2023-12-29T14:25:48;1.80;;;1.20;;
60354;SDS011;46198;51.464;-0.066;2023-12-29T14:28:17;3.77;;;1.37;;
60354;SDS011;46198;51.464;-0.066;2023-12-29T14:33:16;6.78;;;1.83;;
60354;SDS011;46198;51.464;-0.066;2023-12-29T14:35:44;4.25;;;1.50;;
60354;SDS011;46198;51.464;-0.066;2023-12-29T14:38:13;1.88;;;0.88;;
60354;SDS011;46198;51.464;-0.066;2023-12-29T14:40:45;2.23;;;0.90;;
60354;SDS011;46198;51.464;-0.066;2023-12-29T14:43:14;2.10;;;1.00;;
60354;SDS011;46198;51.464;-0.066;2023-12-29T14:45:42;2.35;;;1.00;;
60354;SDS011;46198;51.464;-0.066;2023-12-29T14:48:11;8.82;;;3.45;;
60354;SDS011;46198;51.464;-0.066;2023-12-29T14:50:40;4.03;;;2.10;;
60354;SDS011;46198;51.464;-0.066;2023-12-29T14:53:12;8.13;;;1.85;;
60354;SDS011;46198;51.464;-0.066;2023-12-29T14:55:41;2.90;;;1.65;;
60354;SDS011;46198;51.464;-0.066;2023-12-29T14:58:11;3.70;;;1.77;;
60354;SDS011;46198;51.464;-0.066;2023-12-29T15:00:39;5.37;;;1.87;;
60354;SDS011;46198;51.464;-0.066;2023-12-29T15:03:13;3.97;;;1.60;;
60354;SDS011;46198;51.464;-0.066;2023-12-29T15:05:43;5.43;;;2.08;;
60354;SDS011;46198;51.464;-0.066;2023-12-29T15:08:12;3.22;;;1.00;;